Newport News Williamsburg International Airport
KPHF : now visible

Airfield :











YOU CAN JOIN US ON...

 
LOGIN :

Register | Disclaimer

   EN    FR    IT 

 









Legend :    VFR   Marginal VFR   IFR   Intensive IFR   Very Intensive IFR
Visi :
Ceiling :
>= 8 km
>= 3000ft
5 to 8 km
1000 to 3000 ft
1500m to 5 km
500 to 1000 ft
800 to 1500m
200 to 500 ft
< 800m
< 200 ft
Symbols :   Thunderstorms  Fog  Heavy snow  Heavy precipitations  Wind > 20 kt






- Airport Elevation : 42 ft
- IATA code : PHF


KPHF - Newport News Williamsburg International

CURRENT METAR :
  • 202054Z 17012KT 10SM BKN020 BKN027 26/22 A2986 RMK AO2 SLP111 T02610222 56006

EXPIRED METARs :
  • 201954Z 20012G22KT 10SM OVC024 26/22 A2986 RMK AO2 SLP112 T02610217
  • 201939Z 18014KT 10SM BKN023 26/22 A2986 RMK AO2 T02610217
  • 201854Z 21018KT 10SM CLR 27/22 A2987 RMK AO2 SLP113 T02670217

TAF KPHF
Valid from the 20 at 18:00 until the 21 at 18:00 UTC


201742Z 2018/2118 21015G24KT P6SM BKN035
FM210800 21009KT P6SM BKN050
FM211000 19009KT P6SM BKN030
FM211200 16007KT P6SM BKN015
FM211600 15007KT P6SM BKN050
KZDC FIR / North America



MET'MAP, your aeronautical weather chart ! - Copyright ORBIFLY December 2007 - Disclaimer

ORBIFLY MET'MAP TEAM :

Programming & Development : Alexandra Zaïnal
Concept & original design : Baudouin d'Aumeries
Assistance for programming : Marc-Olivier Méhu
Technical & hardware support : Manuel Goepfert

Contact : metmap@orbifly.com




SOURCES & CREDITS :

   NOAA       Earth
Advisory